Scotland Neck, North Carolina
Current Conditions -  °F | °C
As of 2:55 PM on Thursday 18 Dec 2014 (Local Time) from KETC Reporting Station
Overcast Overcast  
Wind Chill: 49°   Ceiling: 11000
Heat Index: 49°   Visibility: 10mi
Dew Point: 29°   Wind: 0mph
Humidity: 46%   Direction: NA
Pressure: 30.11"   Gusts: NA
Location:  36.13°N, 77.42°W
Report Text: KETC 181955Z AUTO 00000KT 10SM OVC110 09/M02 A3011 RMK AO2 T00931019
Loading
Personal Weather Stations






























Interactive Weather Map New forecast layout! Learn more

10-Day Weather Forecast

Advertisements
Track Severe Weather on mobile